Time;durP1;ratioP1;P1;durP2;ratioP2;P2;SDS_P1;SDS_P2;PMS_P1;PMS_P2;Temp;Humidity;BMP_temperature;BMP_pressure;BME280_temperature;BME280_humidity;BME280_pressure;Samples;Min_cycle;Max_cycle;Signal;HPM_P1;HPM_P2
2022/12/27 00:00:13;;;;;;;2.05;1.50;;;;;;;-140.72;100.00;53350.75;5131079;27;20019;-66
2022/12/27 00:02:39;;;;;;;4.95;1.30;;;;;;;-140.72;100.00;53287.84;5131893;27;20375;-65
2022/12/27 00:05:07;;;;;;;1.80;0.93;;;;;;;-140.72;100.00;53344.66;5130573;27;20026;-65
2022/12/27 00:07:32;;;;;;;7.05;1.45;;;;;;;-140.72;100.00;53328.41;5129851;27;20367;-65
2022/12/27 00:09:58;;;;;;;5.05;1.25;;;;;;;-140.72;100.00;53332.47;5129767;27;20024;-65
2022/12/27 00:12:23;;;;;;;2.30;0.90;;;;;;;-140.72;100.00;53304.06;5131108;27;20457;-65
2022/12/27 00:14:48;;;;;;;1.70;0.52;;;;;;;-140.72;100.00;53328.41;5131016;27;20022;-65
2022/12/27 00:17:14;;;;;;;6.72;1.20;;;;;;;-140.72;100.00;53348.72;5129364;27;20022;-65
2022/12/27 00:19:39;;;;;;;1.80;0.70;;;;;;;-140.72;100.00;53316.25;5131147;27;20503;-66
2022/12/27 00:22:04;;;;;;;2.83;0.73;;;;;;;-140.72;100.00;53291.88;5132160;27;20407;-65
2022/12/27 00:24:30;;;;;;;7.53;1.08;;;;;;;-140.72;100.00;53271.59;5132362;27;20050;-64
2022/12/27 00:26:55;;;;;;;3.15;1.23;;;;;;;-140.72;100.00;53344.66;5127506;27;20030;-65
2022/12/27 00:29:20;;;;;;;2.40;1.42;;;;;;;-140.72;100.00;53330.44;5131721;27;20247;-65
2022/12/27 00:31:46;;;;;;;1.40;1.30;;;;;;;-140.72;100.00;53312.19;5131388;27;20110;-65
2022/12/27 00:34:11;;;;;;;3.63;0.95;;;;;;;-140.72;100.00;53358.88;5129822;27;20027;-65
2022/12/27 00:36:36;;;;;;;4.57;1.27;;;;;;;-140.72;100.00;53328.41;5127688;27;20069;-64
2022/12/27 00:39:02;;;;;;;3.63;1.25;;;;;;;-140.72;100.00;53297.97;5129810;27;20065;-65
2022/12/27 00:41:28;;;;;;;4.43;0.80;;;;;;;-140.72;100.00;53354.81;5126493;27;20440;-64
2022/12/27 00:43:54;;;;;;;7.70;1.58;;;;;;;-140.72;100.00;53312.19;5130319;27;20401;-65
2022/12/27 00:46:19;;;;;;;9.60;1.70;;;;;;;-140.72;100.00;53316.25;5126889;27;20434;-65
2022/12/27 00:48:45;;;;;;;2.53;0.65;;;;;;;-140.72;100.00;53344.66;5127552;27;20042;-66
2022/12/27 00:51:17;;;;;;;6.10;1.00;;;;;;;-140.72;100.00;53326.41;5131221;27;20038;-67
2022/12/27 00:53:43;;;;;;;5.25;1.27;;;;;;;-140.72;100.00;53306.09;5127714;27;20414;-65
2022/12/27 00:56:13;;;;;;;1.85;0.65;;;;;;;-140.72;100.00;53318.28;5129132;27;20012;-66
2022/12/27 00:58:38;;;;;;;0.80;0.73;;;;;;;-140.72;100.00;53320.31;5127163;27;20109;-66
2022/12/27 01:01:11;;;;;;;2.45;0.73;;;;;;;-140.72;100.00;53369.00;5127193;27;20153;-65
2022/12/27 01:03:37;;;;;;;6.57;1.48;;;;;;;-140.72;100.00;53324.38;5125074;27;20030;-65
2022/12/27 01:06:05;;;;;;;12.77;2.45;;;;;;;-140.72;100.00;53295.94;5130847;27;20015;-65
2022/12/27 01:08:30;;;;;;;11.20;1.05;;;;;;;-140.72;100.00;53291.88;5130240;27;20157;-66
2022/12/27 01:10:55;;;;;;;1.92;1.02;;;;;;;-140.72;100.00;53304.06;5129896;27;20328;-65
2022/12/27 01:13:21;;;;;;;2.78;0.80;;;;;;;-140.72;100.00;53267.53;5129156;27;20526;-65
2022/12/27 01:15:46;;;;;;;8.40;1.73;;;;;;;-140.72;100.00;53314.22;5124875;27;20187;-65
2022/12/27 01:18:11;;;;;;;3.08;0.95;;;;;;;-140.72;100.00;53344.66;5127460;27;20311;-67
2022/12/27 01:20:40;;;;;;;5.53;1.80;;;;;;;-140.72;100.00;53297.97;5128578;27;20023;-67
2022/12/27 01:23:05;;;;;;;5.35;1.45;;;;;;;-140.72;100.00;53302.03;5127755;27;20042;-67
2022/12/27 01:25:30;;;;;;;3.03;1.48;;;;;;;-140.72;100.00;53306.09;5128852;27;20031;-66
2022/12/27 01:27:56;;;;;;;6.85;1.02;;;;;;;-140.72;100.00;53295.94;5129205;27;20019;-64
2022/12/27 01:30:21;;;;;;;4.18;1.80;;;;;;;-140.72;100.00;53314.22;5125183;27;20208;-65
2022/12/27 01:32:46;;;;;;;3.35;1.13;;;;;;;-140.72;100.00;53277.69;5111798;27;20019;-66
2022/12/27 01:35:12;;;;;;;3.30;1.63;;;;;;;-140.72;100.00;53334.50;5125183;27;20030;-65
2022/12/27 01:37:46;;;;;;;6.03;1.13;;;;;;;-140.72;100.00;53297.97;5124994;27;20461;-66
2022/12/27 01:40:12;;;;;;;3.78;1.08;;;;;;;-140.72;100.00;53318.28;5127372;27;20463;-65
2022/12/27 01:42:54;;;;;;;3.60;1.33;;;;;;;-140.72;100.00;53297.97;5128224;27;20015;-66
2022/12/27 01:45:27;;;;;;;2.83;1.05;;;;;;;-140.72;100.00;53328.41;5124561;27;20412;-66
2022/12/27 01:48:28;;;;;;;3.10;1.35;;;;;;;-140.72;100.00;53297.97;5129914;27;20139;-66
2022/12/27 01:51:00;;;;;;;4.22;1.58;;;;;;;-140.72;100.00;53318.28;5113556;27;20530;-67
2022/12/27 01:53:33;;;;;;;1.38;0.65;;;;;;;-140.72;100.00;53302.03;5128507;27;20443;-65
2022/12/27 01:56:01;;;;;;;1.92;1.00;;;;;;;-140.72;100.00;53283.78;5129357;27;20106;-65
2022/12/27 01:58:39;;;;;;;5.85;1.83;;;;;;;-140.72;100.00;53310.16;5127697;27;20031;-66
2022/12/27 02:01:09;;;;;;;4.22;0.70;;;;;;;-140.72;100.00;53320.31;5126193;27;20500;-66
2022/12/27 02:03:39;;;;;;;5.93;1.73;;;;;;;-140.72;100.00;53320.31;5128442;27;20031;-64
2022/12/27 02:06:08;;;;;;;2.83;1.35;;;;;;;-140.72;100.00;53300.00;5128231;27;20101;-65
2022/12/27 02:09:03;;;;;;;1.67;1.02;;;;;;;-140.72;100.00;53304.06;5127998;27;20447;-65
2022/12/27 02:11:50;;;;;;;0.80;0.57;;;;;;;-140.72;100.00;53324.38;5128106;27;20454;-66
2022/12/27 02:14:37;;;;;;;10.32;1.23;;;;;;;-140.72;100.00;53320.31;5125651;27;20056;-64
2022/12/27 02:17:06;;;;;;;2.25;0.73;;;;;;;-140.72;100.00;53300.00;5125059;27;20023;-67
2022/12/27 02:19:41;;;;;;;1.30;0.57;;;;;;;-140.72;100.00;53304.06;5125856;27;20023;-67
2022/12/27 02:25:41;;;;;;;3.38;1.70;;;;;;;-140.72;100.00;53318.28;5126559;27;20386;-65
2022/12/27 02:28:28;;;;;;;2.05;0.75;;;;;;;-140.72;100.00;53310.16;5125488;27;20015;-65
2022/12/27 02:31:02;;;;;;;6.63;1.73;;;;;;;-140.72;100.00;53289.88;5125086;27;20099;-65
2022/12/27 02:33:31;;;;;;;3.42;1.02;;;;;;;-140.72;100.00;53304.06;5127282;27;20375;-66
2022/12/27 02:36:02;;;;;;;5.93;1.50;;;;;;;-140.72;100.00;53295.94;5128363;27;20030;-66
2022/12/27 02:38:32;;;;;;;1.27;0.88;;;;;;;-140.72;100.00;53293.91;5129008;27;20027;-65
2022/12/27 02:55:33;;;;;;;4.93;1.52;;;;;;;-140.72;100.00;53287.84;5127207;27;20061;-66
2022/12/27 02:58:24;;;;;;;4.40;1.10;;;;;;;-140.72;100.00;53281.75;5127300;27;20021;-66
2022/12/27 03:04:23;;;;;;;8.63;2.15;;;;;;;-140.72;100.00;53314.22;5126139;27;20152;-65
2022/12/27 03:07:03;;;;;;;2.10;1.02;;;;;;;-140.72;100.00;53334.50;5128513;27;20022;-65
2022/12/27 03:15:55;;;;;;;1.80;0.95;;;;;;;-140.72;100.00;53304.06;5117392;27;20030;-67
2022/12/27 03:18:33;;;;;;;12.35;1.73;;;;;;;-140.72;100.00;53326.41;5111148;27;20026;-65
2022/12/27 03:26:32;;;;;;;3.50;0.90;;;;;;;-140.72;100.00;53320.31;5121366;27;20038;-67
2022/12/27 03:34:39;;;;;;;5.80;1.40;;;;;;;-140.72;100.00;53328.41;5115813;28;20049;-66
2022/12/27 03:40:02;;;;;;;3.22;0.52;;;;;;;-140.72;100.00;53293.91;5129127;28;20119;-65
2022/12/27 03:45:20;;;;;;;3.67;0.77;;;;;;;-140.72;100.00;53320.31;5117935;28;20167;-65
2022/12/27 03:47:59;;;;;;;7.13;1.00;;;;;;;-140.72;100.00;53277.69;5119161;28;20022;-66
2022/12/27 03:50:32;;;;;;;2.47;0.80;;;;;;;-140.72;100.00;53259.41;5117849;28;20150;-66
2022/12/27 03:53:08;;;;;;;0.75;0.45;;;;;;;-140.72;100.00;53281.75;5130032;28;20031;-65
2022/12/27 03:55:33;;;;;;;9.35;1.45;;;;;;;-140.72;100.00;53271.59;5126304;28;20032;-66
2022/12/27 03:57:59;;;;;;;4.82;1.35;;;;;;;-140.72;100.00;53326.41;5125823;28;20031;-64
2022/12/27 04:00:24;;;;;;;6.63;1.17;;;;;;;-140.72;100.00;53324.38;5129711;28;20035;-65
2022/12/27 04:02:49;;;;;;;5.18;1.08;;;;;;;-140.72;100.00;53275.66;5128643;28;20023;-66
2022/12/27 04:05:15;;;;;;;5.88;1.05;;;;;;;-140.72;100.00;53316.25;5120645;28;20023;-65
2022/12/27 04:35:00;;;;;;;2.42;0.98;;;;;;;-140.72;100.00;53377.13;5122359;28;20112;-66
2022/12/27 04:37:25;;;;;;;1.80;0.82;;;;;;;-140.72;100.00;53336.53;5126344;27;20439;-66
2022/12/27 04:56:31;;;;;;;2.53;0.88;;;;;;;-140.72;100.00;53346.69;5130091;27;20030;-66
2022/12/27 05:04:25;;;;;;;5.93;1.25;;;;;;;-140.72;100.00;53322.34;5123210;27;20057;-65
2022/12/27 05:06:51;;;;;;;2.45;1.00;;;;;;;-140.72;100.00;53328.41;5131275;27;20677;-65
2022/12/27 05:14:44;;;;;;;6.28;0.98;;;;;;;-140.72;100.00;53379.16;5127894;27;20022;-68
2022/12/27 05:17:10;;;;;;;3.65;1.73;;;;;;;-140.72;100.00;53320.31;5129260;27;20019;-67
2022/12/27 05:19:35;;;;;;;0.80;0.65;;;;;;;-140.72;100.00;53328.41;5128597;27;20038;-66
2022/12/27 05:27:29;;;;;;;6.82;1.48;;;;;;;-140.72;100.00;53332.47;5129135;27;20054;-65
2022/12/27 05:29:54;;;;;;;2.70;1.27;;;;;;;-140.72;100.00;53334.50;5130284;27;20023;-67
2022/12/27 05:32:19;;;;;;;6.78;1.95;;;;;;;-140.72;100.00;53362.94;5129031;27;20134;-67
2022/12/27 05:34:45;;;;;;;2.15;0.80;;;;;;;-140.72;100.00;53336.53;5130729;27;20107;-66
2022/12/27 05:37:10;;;;;;;8.07;1.15;;;;;;;-140.72;100.00;53371.03;5129288;27;20011;-67
2022/12/27 05:39:35;;;;;;;3.25;1.35;;;;;;;-140.72;100.00;53373.06;5130162;27;20069;-66
2022/12/27 05:42:02;;;;;;;1.95;1.15;;;;;;;-140.72;100.00;53354.81;5128866;27;20023;-66
2022/12/27 05:44:27;;;;;;;7.30;1.20;;;;;;;-140.72;100.00;53316.25;5130033;27;20027;-65
2022/12/27 05:46:53;;;;;;;4.88;0.82;;;;;;;-140.72;100.00;53340.59;5129457;27;20019;-65
2022/12/27 05:49:19;;;;;;;5.82;0.95;;;;;;;-140.72;100.00;53356.84;5126043;27;20064;-66
2022/12/27 05:51:44;;;;;;;1.63;1.15;;;;;;;-140.72;100.00;53352.78;5127517;27;20043;-67
2022/12/27 05:54:09;;;;;;;2.65;1.05;;;;;;;-140.72;100.00;53324.38;5130667;27;20035;-66
2022/12/27 05:56:36;;;;;;;6.85;1.52;;;;;;;-140.72;100.00;53360.91;5130378;27;20019;-65
2022/12/27 05:59:02;;;;;;;12.88;1.77;;;;;;;-140.72;100.00;53342.63;5130220;27;20090;-66
2022/12/27 06:01:27;;;;;;;3.25;1.02;;;;;;;-140.72;100.00;53393.38;5127845;27;20509;-66
2022/12/27 06:03:52;;;;;;;3.75;1.08;;;;;;;-140.72;100.00;53403.53;5122840;27;20015;-67
2022/12/27 06:06:18;;;;;;;4.57;1.50;;;;;;;-140.72;100.00;53399.47;5121659;27;20080;-66
2022/12/27 06:08:43;;;;;;;4.15;1.88;;;;;;;-140.72;100.00;53342.63;5124918;27;20015;-66
2022/12/27 06:11:08;;;;;;;3.10;1.17;;;;;;;-140.72;100.00;53354.81;5128631;27;20118;-67
2022/12/27 06:13:35;;;;;;;3.47;0.98;;;;;;;-140.72;100.00;53342.63;5129336;27;20415;-65
2022/12/27 06:16:02;;;;;;;1.00;0.80;;;;;;;-140.72;100.00;53350.75;5129283;27;20041;-67
2022/12/27 06:18:28;;;;;;;7.85;1.60;;;;;;;-140.72;100.00;53358.88;5129759;27;20151;-66
2022/12/27 06:20:54;;;;;;;5.75;1.08;;;;;;;-140.72;100.00;53320.31;5128186;27;20366;-65
2022/12/27 06:23:19;;;;;;;2.33;1.15;;;;;;;-140.72;100.00;53328.41;5129289;27;20098;-67
2022/12/27 06:25:44;;;;;;;4.72;0.98;;;;;;;-140.72;100.00;53350.75;5128982;27;20023;-64
2022/12/27 06:28:10;;;;;;;3.15;1.40;;;;;;;-140.72;100.00;53342.63;5130782;27;20058;-65
2022/12/27 06:30:35;;;;;;;8.68;1.63;;;;;;;-140.72;100.00;53336.53;5128757;27;20088;-65
2022/12/27 06:33:07;;;;;;;5.47;1.00;;;;;;;-140.72;100.00;53354.81;5129625;27;20127;-64
2022/12/27 06:35:32;;;;;;;4.05;0.88;;;;;;;-140.72;100.00;53320.31;5129158;27;20064;-66
2022/12/27 06:37:58;;;;;;;4.07;0.68;;;;;;;-140.72;100.00;53348.72;5131128;27;20519;-65
2022/12/27 06:40:23;;;;;;;2.13;0.98;;;;;;;-140.72;100.00;53342.63;5125900;27;20055;-66
2022/12/27 06:42:48;;;;;;;10.65;2.10;;;;;;;-140.72;100.00;53352.78;5121158;27;20488;-65
2022/12/27 06:45:14;;;;;;;3.55;0.90;;;;;;;-140.72;100.00;53336.53;5116775;27;20048;-65
2022/12/27 06:47:39;;;;;;;4.85;1.00;;;;;;;-140.72;100.00;53332.47;5122462;27;20095;-65
2022/12/27 06:50:05;;;;;;;7.55;2.22;;;;;;;-140.72;100.00;53338.56;5124638;27;20364;-63
2022/12/27 06:52:30;;;;;;;3.22;1.67;;;;;;;-140.72;100.00;53297.97;5124481;27;20055;-66
2022/12/27 06:54:56;;;;;;;4.80;1.08;;;;;;;-140.72;100.00;53352.78;5122323;27;20034;-66
2022/12/27 06:57:21;;;;;;;3.88;1.92;;;;;;;-140.72;100.00;53318.28;5118958;27;20023;-64
2022/12/27 06:59:46;;;;;;;8.20;2.17;;;;;;;-140.72;100.00;53340.59;5110811;27;20042;-65
2022/12/27 07:02:12;;;;;;;5.18;0.98;;;;;;;-140.72;100.00;53328.41;5122172;27;20076;-66
2022/12/27 07:04:37;;;;;;;9.10;1.80;;;;;;;-140.72;100.00;53344.66;5125254;27;20023;-66
2022/12/27 07:07:02;;;;;;;3.80;1.10;;;;;;;-140.72;100.00;53352.78;5125358;27;20477;-66
2022/12/27 07:09:28;;;;;;;8.25;1.90;;;;;;;-140.72;100.00;53334.50;5124736;27;20450;-66
2022/12/27 07:11:53;;;;;;;7.00;2.15;;;;;;;-140.72;100.00;53324.38;5129546;27;20064;-65
2022/12/27 07:14:18;;;;;;;8.63;2.13;;;;;;;-140.72;100.00;53320.31;5127939;27;20110;-64
2022/12/27 07:16:44;;;;;;;3.03;1.17;;;;;;;-140.72;100.00;53334.50;5130152;27;20519;-66
2022/12/27 07:19:09;;;;;;;5.13;1.95;;;;;;;-140.72;100.00;53324.38;5128348;27;20023;-66
2022/12/27 07:21:35;;;;;;;7.07;1.45;;;;;;;-140.72;100.00;53310.16;5128828;27;20050;-64
2022/12/27 07:24:01;;;;;;;7.50;1.27;;;;;;;-140.72;100.00;53330.44;5097442;28;20028;-66
2022/12/27 07:26:28;;;;;;;4.10;1.30;;;;;;;-140.72;100.00;53318.28;5126031;27;20088;-65
2022/12/27 07:28:56;;;;;;;12.77;2.10;;;;;;;-140.72;100.00;53340.59;5126147;27;20363;-66
2022/12/27 07:31:25;;;;;;;1.98;1.05;;;;;;;-140.72;100.00;53295.94;5127587;28;20084;-65
2022/12/27 07:33:51;;;;;;;5.03;1.20;;;;;;;-140.72;100.00;53330.44;5125459;28;20435;-66
2022/12/27 07:36:21;;;;;;;2.28;1.05;;;;;;;-140.72;100.00;53300.00;5127285;28;20050;-65
2022/12/27 07:38:47;;;;;;;9.55;2.28;;;;;;;-140.72;100.00;53362.94;5126032;28;20471;-66
2022/12/27 07:41:13;;;;;;;9.70;1.77;;;;;;;-140.72;100.00;53320.31;5129167;28;20019;-66
2022/12/27 07:43:39;;;;;;;6.28;1.25;;;;;;;-140.72;100.00;53364.97;5130241;28;20126;-65
2022/12/27 07:46:17;;;;;;;3.47;1.42;;;;;;;-140.72;100.00;53336.53;5126153;28;20063;-66
2022/12/27 07:48:42;;;;;;;4.38;1.50;;;;;;;-140.72;100.00;53330.44;5124149;28;20039;-64
2022/12/27 07:51:09;;;;;;;2.88;1.55;;;;;;;-140.72;100.00;53369.00;5120770;28;20049;-67
2022/12/27 07:53:35;;;;;;;11.57;1.90;;;;;;;-140.72;100.00;53356.84;5117389;28;20023;-67
2022/12/27 07:56:13;;;;;;;13.93;2.10;;;;;;;-140.72;100.00;53350.75;5116597;28;20023;-65
2022/12/27 07:58:40;;;;;;;8.18;1.35;;;;;;;-140.72;100.00;53360.91;5124112;28;20423;-67
2022/12/27 08:01:08;;;;;;;4.00;1.05;;;;;;;-140.72;100.00;53310.16;5128936;28;20023;-65
2022/12/27 08:03:33;;;;;;;5.50;1.27;;;;;;;-140.72;100.00;53336.53;5117862;28;20028;-66
2022/12/27 08:05:59;;;;;;;4.30;1.60;;;;;;;-140.72;100.00;53312.19;5128114;28;20473;-66
2022/12/27 08:08:30;;;;;;;7.18;1.70;;;;;;;-140.72;100.00;53330.44;5124745;28;20042;-65
2022/12/27 08:10:56;;;;;;;3.00;1.10;;;;;;;-140.72;100.00;53348.72;5127605;27;20015;-67
2022/12/27 08:13:22;;;;;;;9.85;2.30;;;;;;;-140.72;100.00;53336.53;5117622;27;20092;-65
2022/12/27 08:15:54;;;;;;;13.52;1.90;;;;;;;-140.72;100.00;53369.00;5124967;27;20019;-66
2022/12/27 08:18:26;;;;;;;7.47;2.40;;;;;;;-140.72;100.00;53385.25;5128052;27;20094;-66
2022/12/27 08:20:51;;;;;;;11.90;1.45;;;;;;;-140.72;100.00;53320.31;5120333;27;20027;-65
2022/12/27 08:23:16;;;;;;;3.78;1.23;;;;;;;-140.72;100.00;53364.97;5129791;27;20042;-66
2022/12/27 08:25:42;;;;;;;7.00;1.23;;;;;;;-140.72;100.00;53314.22;5123033;27;20024;-65
2022/12/27 08:28:11;;;;;;;10.63;2.08;;;;;;;-140.72;100.00;53332.47;5130476;27;20496;-64
2022/12/27 08:30:38;;;;;;;6.50;2.60;;;;;;;-140.72;100.00;53344.66;5130605;27;20027;-66
2022/12/27 08:33:03;;;;;;;3.20;1.83;;;;;;;-140.72;100.00;53375.09;5129568;27;20023;-66
2022/12/27 08:35:29;;;;;;;5.40;1.45;;;;;;;-140.72;100.00;53356.84;5130423;27;20436;-64
2022/12/27 08:37:55;;;;;;;3.40;1.83;;;;;;;-140.72;100.00;53324.38;5131088;27;20031;-66
2022/12/27 08:40:20;;;;;;;9.90;2.35;;;;;;;-140.72;100.00;53369.00;5127143;27;20037;-65
2022/12/27 08:42:46;;;;;;;6.70;2.05;;;;;;;-140.72;100.00;53356.84;5131053;27;20416;-65
2022/12/27 08:45:12;;;;;;;8.88;2.03;;;;;;;-140.72;100.00;53332.47;5129359;27;20043;-66
2022/12/27 08:47:37;;;;;;;5.85;2.28;;;;;;;-140.72;100.00;53375.09;5130779;27;20466;-66
2022/12/27 08:50:03;;;;;;;5.97;1.73;;;;;;;-140.72;100.00;53344.66;5129458;27;20035;-67
2022/12/27 08:52:28;;;;;;;3.92;1.60;;;;;;;-140.72;100.00;53336.53;5127639;27;20023;-69
2022/12/27 08:54:53;;;;;;;3.92;1.90;;;;;;;-140.72;100.00;53314.22;5129434;27;20121;-66
2022/12/27 08:57:19;;;;;;;7.05;2.38;;;;;;;-140.72;100.00;53332.47;5129925;27;20015;-65
2022/12/27 08:59:44;;;;;;;5.78;2.85;;;;;;;-140.72;100.00;53379.16;5127487;27;20098;-67
2022/12/27 09:02:13;;;;;;;6.00;2.53;;;;;;;-140.72;100.00;53373.06;5131621;27;20027;-67
2022/12/27 09:04:38;;;;;;;3.53;1.97;;;;;;;-140.72;100.00;53334.50;5126348;27;20052;-65
2022/12/27 09:07:04;;;;;;;2.45;1.95;;;;;;;-140.72;100.00;53328.41;5129672;27;20047;-66
2022/12/27 09:09:29;;;;;;;4.35;2.13;;;;;;;-140.72;100.00;53334.50;5127220;27;20020;-66
2022/12/27 09:11:55;;;;;;;6.43;2.40;;;;;;;-140.72;100.00;53312.19;5130401;27;20023;-66
2022/12/27 09:14:20;;;;;;;7.90;2.25;;;;;;;-140.72;100.00;53304.06;5129452;27;20021;-66
2022/12/27 09:16:46;;;;;;;4.60;1.83;;;;;;;-140.72;100.00;53348.72;5130073;27;20080;-65
2022/12/27 09:19:11;;;;;;;9.02;1.92;;;;;;;-140.72;100.00;53320.31;5130399;27;20054;-67
2022/12/27 09:21:40;;;;;;;5.97;2.80;;;;;;;-140.72;100.00;53336.53;5130756;27;20108;-65
2022/12/27 09:24:06;;;;;;;2.63;1.55;;;;;;;-140.72;100.00;53304.06;5126974;27;20023;-66
2022/12/27 09:26:32;;;;;;;3.33;1.77;;;;;;;-140.72;100.00;53324.38;5129809;27;20019;-65
2022/12/27 09:29:00;;;;;;;7.18;1.77;;;;;;;-140.72;100.00;53304.06;5123350;27;20102;-66
2022/12/27 09:31:27;;;;;;;5.32;1.45;;;;;;;-140.72;100.00;53373.06;5127336;27;20475;-65
2022/12/27 09:33:53;;;;;;;3.67;2.05;;;;;;;-140.72;100.00;53320.31;5131324;27;20023;-65
2022/12/27 09:36:22;;;;;;;2.60;2.30;;;;;;;-140.72;100.00;53344.66;5130788;27;20088;-65
2022/12/27 09:38:48;;;;;;;7.13;2.03;;;;;;;-140.72;100.00;53314.22;5117530;27;20027;-66
2022/12/27 09:41:39;;;;;;;7.00;1.63;;;;;;;-140.72;100.00;53324.38;5129451;27;20098;-65
2022/12/27 09:44:10;;;;;;;4.13;2.05;;;;;;;-140.72;100.00;53287.84;5121824;27;20386;-66
2022/12/27 09:46:50;;;;;;;4.68;1.75;;;;;;;-140.72;100.00;53308.13;5123481;27;20032;-66
2022/12/27 09:49:26;;;;;;;4.88;2.50;;;;;;;-140.72;100.00;53356.84;5117398;27;20941;-67
2022/12/27 09:51:57;;;;;;;6.38;2.63;;;;;;;-140.72;100.00;53379.16;5127025;27;20635;-67
2022/12/27 09:54:36;;;;;;;5.43;1.92;;;;;;;-140.72;100.00;53340.59;5117831;27;20027;-65
2022/12/27 09:57:04;;;;;;;10.00;2.95;;;;;;;-140.72;100.00;53312.19;5130176;27;20027;-66
2022/12/27 09:59:36;;;;;;;9.65;1.90;;;;;;;-140.72;100.00;53295.94;5128545;27;20113;-65
2022/12/27 10:02:16;;;;;;;7.32;2.60;;;;;;;-140.72;100.00;53322.34;5123341;27;20102;-66
2022/12/27 10:04:42;;;;;;;9.13;1.92;;;;;;;-140.72;100.00;53310.16;5125048;27;20405;-66
2022/12/27 10:07:46;;;;;;;10.85;1.95;;;;;;;-140.72;100.00;53312.19;5112002;27;20019;-66
2022/12/27 10:10:37;;;;;;;10.57;2.92;;;;;;;-140.72;100.00;53320.31;5122267;27;20094;-65
2022/12/27 10:13:13;;;;;;;5.30;3.17;;;;;;;-140.72;100.00;53346.69;5128723;27;20490;-67
2022/12/27 10:15:45;;;;;;;3.38;2.13;;;;;;;-140.72;100.00;53289.88;5128462;27;20467;-67
2022/12/27 10:18:41;;;;;;;3.30;1.75;;;;;;;-140.72;100.00;53316.25;5114217;27;20072;-65
2022/12/27 10:21:24;;;;;;;4.28;1.95;;;;;;;-140.72;100.00;53308.13;5118355;27;20084;-66
2022/12/27 10:23:59;;;;;;;6.32;2.30;;;;;;;-140.72;100.00;53283.78;5127386;27;20467;-66
2022/12/27 10:26:25;;;;;;;9.18;2.65;;;;;;;-140.72;100.00;53340.59;5122352;27;20019;-67
2022/12/27 10:28:59;;;;;;;3.67;1.98;;;;;;;-140.72;100.00;53289.88;5115480;27;20123;-67
2022/12/27 10:31:26;;;;;;;8.68;2.58;;;;;;;-140.72;100.00;53283.78;5128190;27;20045;-66
2022/12/27 10:33:52;;;;;;;4.93;2.42;;;;;;;-140.72;100.00;53285.81;5120729;27;20145;-66
2022/12/27 10:36:22;;;;;;;3.47;1.90;;;;;;;-140.72;100.00;53318.28;5122120;27;20115;-67
2022/12/27 10:38:48;;;;;;;8.32;2.55;;;;;;;-140.72;100.00;53312.19;5126677;27;20030;-68
2022/12/27 10:41:56;;;;;;;6.05;2.67;;;;;;;-140.72;100.00;53263.47;5128766;27;20056;-65
2022/12/27 10:44:25;;;;;;;17.80;2.92;;;;;;;-140.72;100.00;53279.72;5123156;27;20023;-64
2022/12/27 10:46:57;;;;;;;7.77;2.93;;;;;;;-140.72;100.00;53261.44;5103804;27;20072;-66
2022/12/27 10:49:26;;;;;;;9.27;3.00;;;;;;;-140.72;100.00;53293.91;5122944;27;20059;-65
2022/12/27 10:51:55;;;;;;;2.83;2.17;;;;;;;-140.72;100.00;53300.00;5126336;27;20095;-65
2022/12/27 10:54:28;;;;;;;4.97;3.30;;;;;;;-140.72;100.00;53281.75;5125530;27;20015;-67
2022/12/27 10:56:55;;;;;;;4.78;3.05;;;;;;;-140.72;100.00;53283.78;5127042;27;20478;-66
2022/12/27 10:59:28;;;;;;;5.30;2.85;;;;;;;-140.72;100.00;53271.59;5122311;27;20016;-68
2022/12/27 11:01:59;;;;;;;5.15;2.75;;;;;;;-140.72;100.00;53293.91;5124033;27;20030;-65
2022/12/27 11:04:25;;;;;;;5.10;3.40;;;;;;;-140.72;100.00;53261.44;5125849;27;20035;-65
2022/12/27 11:07:11;;;;;;;5.43;3.05;;;;;;;-140.72;100.00;53279.72;5125068;27;20570;-67
2022/12/27 11:09:38;;;;;;;6.38;2.80;;;;;;;-140.72;100.00;53336.53;5123496;27;20529;-65
2022/12/27 11:12:14;;;;;;;6.47;2.95;;;;;;;-140.72;100.00;53279.72;5123887;27;20458;-67
2022/12/27 11:14:53;;;;;;;6.05;3.10;;;;;;;-140.72;100.00;53255.34;5121528;27;20026;-64
2022/12/27 11:17:24;;;;;;;7.38;3.03;;;;;;;-140.72;100.00;53316.25;5124970;27;20254;-65
2022/12/27 11:19:50;;;;;;;4.18;2.13;;;;;;;-140.72;100.00;53291.88;5121941;27;20405;-64
2022/12/27 11:22:16;;;;;;;2.55;1.90;;;;;;;-140.72;100.00;53267.53;5123269;27;20049;-65
2022/12/27 11:24:47;;;;;;;3.78;2.28;;;;;;;-140.72;100.00;53289.88;5129199;27;20023;-66
2022/12/27 11:27:22;;;;;;;6.18;2.92;;;;;;;-140.72;100.00;53269.56;5123909;27;20471;-67
2022/12/27 11:29:48;;;;;;;4.78;2.35;;;;;;;-140.72;100.00;53241.16;5123985;27;20434;-66
2022/12/27 11:32:13;;;;;;;8.13;2.50;;;;;;;-140.72;100.00;53283.78;5128299;28;20051;-65
2022/12/27 11:34:44;;;;;;;3.80;1.85;;;;;;;-140.72;100.00;53277.69;5121436;28;20114;-66
2022/12/27 11:37:15;;;;;;;2.22;1.67;;;;;;;-140.72;100.00;53228.97;5122268;28;20360;-65
2022/12/27 11:39:51;;;;;;;5.38;2.38;;;;;;;-140.72;100.00;53267.53;5125570;28;20061;-65
2022/12/27 11:42:25;;;;;;;6.50;2.38;;;;;;;-140.72;100.00;53261.44;5116660;28;20442;-67
2022/12/27 11:45:04;;;;;;;5.05;2.45;;;;;;;-140.72;100.00;53263.47;5108133;28;20080;-66
2022/12/27 11:48:08;;;;;;;7.95;2.63;;;;;;;-140.72;100.00;53251.31;5123707;27;20031;-67
2022/12/27 11:51:02;;;;;;;6.25;2.55;;;;;;;-140.72;100.00;53214.78;5116828;27;20466;-67
2022/12/27 11:53:44;;;;;;;5.35;2.53;;;;;;;-140.72;100.00;53226.94;5123490;27;20044;-67
2022/12/27 11:56:18;;;;;;;4.72;2.03;;;;;;;-140.72;100.00;53257.38;5129953;27;20107;-67
2022/12/27 11:59:12;;;;;;;3.33;2.10;;;;;;;-140.72;100.00;53271.59;5130016;27;20031;-69
2022/12/27 12:02:09;;;;;;;3.63;1.90;;;;;;;-140.72;100.00;53239.13;5115701;27;20426;-66
2022/12/27 12:04:43;;;;;;;7.00;1.80;;;;;;;-140.72;100.00;53249.28;5121797;27;20038;-68
2022/12/27 12:07:20;;;;;;;4.07;1.98;;;;;;;-140.72;100.00;53243.19;5130722;27;20046;-67
2022/12/27 12:09:58;;;;;;;6.80;1.65;;;;;;;-140.72;100.00;53247.25;5130444;27;20023;-67
2022/12/27 12:13:08;;;;;;;1.63;1.20;;;;;;;-140.72;100.00;53237.09;5132019;27;20608;-67
2022/12/27 12:15:33;;;;;;;5.82;2.13;;;;;;;-140.72;100.00;53253.31;5109333;27;20110;-69
2022/12/27 12:18:11;;;;;;;3.67;1.98;;;;;;;-140.72;100.00;53263.47;5129557;27;20102;-67
2022/12/27 12:20:45;;;;;;;4.93;1.17;;;;;;;-140.72;100.00;53178.22;5131660;27;20148;-68
2022/12/27 12:23:45;;;;;;;2.95;1.52;;;;;;;-140.72;100.00;53184.31;5121471;27;20019;-67
2022/12/27 12:26:20;;;;;;;4.13;1.88;;;;;;;-140.72;100.00;53198.53;5131663;27;20106;-67
2022/12/27 12:29:01;;;;;;;4.97;2.28;;;;;;;-140.72;100.00;53184.31;5131937;27;20027;-68
2022/12/27 12:31:44;;;;;;;2.85;1.58;;;;;;;-140.72;100.00;53202.59;5123010;27;20087;-67
2022/12/27 12:34:43;;;;;;;3.20;2.17;;;;;;;-140.72;100.00;53198.53;5130769;27;20042;-67
2022/12/27 12:37:38;;;;;;;6.33;1.83;;;;;;;-140.72;100.00;53243.19;5117615;27;20019;-68
2022/12/27 12:40:13;;;;;;;4.55;1.88;;;;;;;-140.72;100.00;53208.69;5118786;27;20020;-67
2022/12/27 12:42:56;;;;;;;4.63;1.92;;;;;;;-140.72;100.00;53198.53;5133300;27;20031;-67
2022/12/27 12:45:26;;;;;;;2.38;0.85;;;;;;;-140.72;100.00;53214.78;5113476;27;20047;-67
2022/12/27 12:48:04;;;;;;;;;;;;;;;-140.72;100.00;53235.06;5124681;27;20066;-68
2022/12/27 12:50:53;;;;;;;2.85;1.80;;;;;;;-140.72;100.00;53208.69;5119703;27;19916;-67
2022/12/27 12:53:32;;;;;;;2.92;1.73;;;;;;;-140.72;100.00;53228.97;5083969;27;20411;-68
2022/12/27 12:56:11;;;;;;;3.28;1.77;;;;;;;-140.72;100.00;53239.13;5124768;27;20144;-67
2022/12/27 12:59:21;;;;;;;6.10;1.77;;;;;;;-140.72;100.00;53255.34;5113260;27;20487;-68
2022/12/27 13:02:00;;;;;;;3.35;1.75;;;;;;;-140.72;100.00;53218.81;5074308;27;20032;-69
2022/12/27 13:05:03;;;;;;;5.97;1.80;;;;;;;-140.72;100.00;53251.31;5131908;27;20021;-67
2022/12/27 13:07:43;;;;;;;2.45;1.63;;;;;;;-140.72;100.00;53216.78;5096972;27;20438;-68
2022/12/27 13:10:19;;;;;;;4.35;1.88;;;;;;;-140.72;100.00;53247.25;5131851;27;20454;-69